Pagina principale
METAR-TAF:

METAR-TAF

Aeroporti :

Aeroporto di Lugano-Agno

Lugano, Svizzera

latitudine: 46-00N, longitudine: 008-58E, altezza: 273 m

Osservazione

Il bollettino è stato emesso 10 minuti fa, alle 11:20 UTC
Vento 3 kt da sud/sud-ovest
Temperature 14°C
Umidità 63%
Pressione 1021 hPa
Visibilità 10 km o più
nessuna nube inferiore a 1500 m e nessun cumulonembo

METAR: LSZA 261120Z 20003KT CAVOK 14/07 Q1021 NOSIG

Ora: 13:30 (11:30 UTC)

Previsione

Il bollettino è stato emesso 3 ore e 5 minuti fa, alle 08:25 UTC
Previsione valida dal 26 alle 09 UTC al 26 alle 18 UTC
Vento 2 kt da direzioni variabili
Visibilità 10 km o più
nessuna nube inferiore a 1500 m e nessun cumulonembo

TAF: LSZA 260825Z 2609/2618 VRB02KT CAVOK

Osservazioni e previsioni meteorologiche di più di 4000 aeroporti (messaggi METAR e TAF).

Le stazioni disponibili sono rappresentate dai dischi gialli e rossi sulla carta.

Puntare il mouse per vedere il nome della stazione.

Clicca sopra per visualizzare le osservazioni e previsioni meteorologiche.

Per cambiare la mappa : fare clic sui pulsanti verdi con una croce nera per ingrandire, il pulsante verde con un trattino per diminuire, o sulla freccia verde per le mappe adiacenti.


METAR-TAF: